Аэропорт: Новый Уренгой. Новый Уренгой

ICAO: USMU

METAR:
2017/06/15 05:30
USMU 150530Z 17005MPS CAVOK 23/13 Q1002 R27/120060 NOSIG RMK QFE746
METAR:
2013/03/23 12:12
TAF TAF USMU 231054Z 2312/2324 11009G14MPS 3000 -SHSN DRSN SCT007 SCT010CB BKN066 530005 
      TEMPO 2312/2315 1000 BLSN SCT005 BKN010CB 
      TEMPO 2315/2324 1000 BLSN SCT005 BKN010CB